createdAt,value
2017-06-29T00:01:00.400Z,54.27
2017-06-29T00:02:10.302Z,54.3
2017-06-29T00:03:20.561Z,54.01
2017-06-29T00:04:30.775Z,53.91
2017-06-29T00:05:40.695Z,54.11
2017-06-29T00:06:50.919Z,54.11
2017-06-29T00:08:00.511Z,54.57
2017-06-29T00:09:10.268Z,54.11
2017-06-29T00:10:19.564Z,54.11
2017-06-29T00:11:29.483Z,54.08
2017-06-29T00:12:39.078Z,54.57
2017-06-29T00:13:49.340Z,54.11
2017-06-29T00:14:59.105Z,54.17
2017-06-29T00:16:08.714Z,53.89
2017-06-29T00:17:18.657Z,53.91
2017-06-29T00:18:28.252Z,54.17
2017-06-29T00:19:38.473Z,54.47
2017-06-29T00:20:48.432Z,53.99
2017-06-29T00:21:58.335Z,54.08
2017-06-29T00:23:08.236Z,54.08
2017-06-29T00:24:18.143Z,54.47
2017-06-29T00:25:28.042Z,54.57
2017-06-29T00:26:38.043Z,54.47
2017-06-29T00:27:47.943Z,54.37
2017-06-29T00:28:58.159Z,54.57
2017-06-29T00:30:08.378Z,54.57
2017-06-29T00:31:18.289Z,54.37
2017-06-29T00:32:28.662Z,54.57
2017-06-29T00:33:38.957Z,54.17
2017-06-29T00:34:49.172Z,54.17
2017-06-29T00:35:58.771Z,54.37
2017-06-29T00:37:08.675Z,54.57
2017-06-29T00:38:18.699Z,54.57
2017-06-29T00:39:28.606Z,54.57
2017-06-29T00:40:38.529Z,54.57
2017-06-29T00:41:48.136Z,54.47
2017-06-29T00:42:58.047Z,54.57
2017-06-29T00:44:08.110Z,54.66
2017-06-29T00:45:17.711Z,54.57
2017-06-29T00:46:27.623Z,54.57
2017-06-29T00:47:37.840Z,54.47
2017-06-29T00:48:48.050Z,54.47
2017-06-29T00:49:58.371Z,54.57
2017-06-29T00:51:08.307Z,54.08
2017-06-29T00:52:17.614Z,54.57
2017-06-29T00:53:27.829Z,54.57
2017-06-29T00:54:37.737Z,54.57
2017-06-29T00:55:48.057Z,54.47
2017-06-29T00:56:57.663Z,54.37
2017-06-29T00:58:07.271Z,54.57
2017-06-29T00:59:16.870Z,54.08
2017-06-29T01:00:26.785Z,54.57
2017-06-29T01:01:36.687Z,54.75
2017-06-29T01:02:46.592Z,54.47
2017-06-29T01:03:56.798Z,54.37
2017-06-29T01:05:06.399Z,54.37
2017-06-29T01:06:16.313Z,54.57
2017-06-29T01:07:26.358Z,54.75
2017-06-29T01:08:35.649Z,54.37
2017-06-29T01:09:45.559Z,54.47
2017-06-29T01:10:55.185Z,54.57
2017-06-29T01:12:05.416Z,54.27
2017-06-29T01:13:14.725Z,54.27
2017-06-29T01:14:24.011Z,54.57
2017-06-29T01:15:33.918Z,54.47
2017-06-29T01:16:43.215Z,54.57
2017-06-29T01:17:53.440Z,54.08
2017-06-29T01:19:03.489Z,54.57
2017-06-29T01:20:13.698Z,54.57
2017-06-29T01:21:23.901Z,54.47
2017-06-29T01:22:33.818Z,54.27
2017-06-29T01:23:43.409Z,53.99
2017-06-29T01:24:53.118Z,54.57
2017-06-29T01:26:03.036Z,54.17
2017-06-29T01:27:12.949Z,54.27
2017-06-29T01:28:22.861Z,54.27
2017-06-29T01:29:32.467Z,54.37
2017-06-29T01:30:42.425Z,54.47
2017-06-29T01:31:52.646Z,54.47
2017-06-29T01:33:02.858Z,54.57
2017-06-29T01:34:12.141Z,54.08
2017-06-29T01:35:22.351Z,54.27
2017-06-29T01:36:32.618Z,53.99
2017-06-29T01:37:42.839Z,54.27
2017-06-29T01:38:52.756Z,54.27
2017-06-29T01:40:02.361Z,54.37
2017-06-29T01:41:11.952Z,54.37
2017-06-29T01:42:22.323Z,54.27
2017-06-29T01:43:32.536Z,54.27
2017-06-29T01:44:42.759Z,54.27
2017-06-29T01:45:52.667Z,54.27
2017-06-29T01:47:02.585Z,54.08
2017-06-29T01:48:12.905Z,54.08
2017-06-29T01:49:22.819Z,54.08
2017-06-29T01:50:32.426Z,54.27
2017-06-29T01:51:42.043Z,54.37
2017-06-29T01:52:52.253Z,54.27
2017-06-29T01:54:02.283Z,54.27
2017-06-29T01:55:12.182Z,53.89
2017-06-29T01:56:22.398Z,54.27
2017-06-29T01:57:32.615Z,53.99
2017-06-29T01:58:42.530Z,53.89
2017-06-29T01:59:52.473Z,53.99
2017-06-29T02:01:02.070Z,54.08
2017-06-29T02:02:11.993Z,53.89
2017-06-29T02:03:21.897Z,53.89
2017-06-29T02:04:31.499Z,53.99
2017-06-29T02:05:42.056Z,54.08
2017-06-29T02:06:51.961Z,53.99
2017-06-29T02:08:01.557Z,54.08
2017-06-29T02:09:11.463Z,53.89
2017-06-29T02:10:21.384Z,53.89
2017-06-29T02:11:31.133Z,54.27
2017-06-29T02:12:41.348Z,54.27
2017-06-29T02:14:10.763Z,54.57
2017-06-29T02:15:20.364Z,54.27
2017-06-29T02:16:30.570Z,54.27
2017-06-29T02:17:40.789Z,54.37
2017-06-29T02:18:51.021Z,54.27
2017-06-29T02:20:00.924Z,54.27
2017-06-29T02:21:10.252Z,54.37
2017-06-29T02:22:20.561Z,54.37
2017-06-29T02:23:29.850Z,54.08
2017-06-29T02:24:39.758Z,54.08
2017-06-29T02:25:49.357Z,54.08
2017-06-29T02:26:59.255Z,54.17
2017-06-29T02:28:08.966Z,54.27
2017-06-29T02:29:18.577Z,54.37
2017-06-29T02:30:28.177Z,54.27
2017-06-29T02:31:38.085Z,54.27
2017-06-29T02:32:48.299Z,54.08
2017-06-29T02:33:58.046Z,54.17
2017-06-29T02:35:07.641Z,54.17
2017-06-29T02:36:17.537Z,54.47
2017-06-29T02:37:27.150Z,54.08
2017-06-29T02:38:37.371Z,54.08
2017-06-29T02:39:47.133Z,54.47
2017-06-29T02:40:57.036Z,54.17
2017-06-29T02:42:06.947Z,53.99
2017-06-29T02:43:16.544Z,54.17
2017-06-29T02:44:25.531Z,54.17
2017-06-29T02:45:35.435Z,54.27
2017-06-29T02:46:45.654Z,54.27
2017-06-29T02:47:55.581Z,54.08
2017-06-29T02:49:05.789Z,54.27
2017-06-29T02:50:15.703Z,54.47
2017-06-29T02:51:25.914Z,54.37
2017-06-29T02:52:35.818Z,54.37
2017-06-29T02:53:46.039Z,54.37
2017-06-29T02:54:55.654Z,54.08
2017-06-29T02:56:05.569Z,54.37
2017-06-29T02:57:15.931Z,54.17
2017-06-29T02:58:25.531Z,54.37
2017-06-29T02:59:34.819Z,54.37
2017-06-29T03:00:45.030Z,54.08
2017-06-29T03:01:54.633Z,54.27
2017-06-29T03:03:04.538Z,54.17
2017-06-29T03:04:14.763Z,54.08
2017-06-29T03:05:24.373Z,54.27
2017-06-29T03:06:34.273Z,54.17
2017-06-29T03:07:44.482Z,54.08
2017-06-29T03:08:54.701Z,54.37
2017-06-29T03:10:04.598Z,54.44
2017-06-29T03:11:14.207Z,54.35
2017-06-29T03:12:24.430Z,54.17
2017-06-29T03:13:34.641Z,54.27
2017-06-29T03:14:44.644Z,54.47
2017-06-29T03:15:54.252Z,54.27
2017-06-29T03:17:04.491Z,54.47
2017-06-29T03:18:14.390Z,54.44
2017-06-29T03:19:24.286Z,54.35
2017-06-29T03:20:33.946Z,54.37
2017-06-29T03:21:43.856Z,54.37
2017-06-29T03:22:54.079Z,54.47
2017-06-29T03:24:03.987Z,54.44
2017-06-29T03:25:13.925Z,54.35
2017-06-29T03:26:24.300Z,54.44
2017-06-29T03:27:34.508Z,54.35
2017-06-29T03:28:44.449Z,54.37
2017-06-29T03:29:54.068Z,54.35
2017-06-29T03:31:03.979Z,54.25
2017-06-29T03:32:14.280Z,54.37
2017-06-29T03:33:23.272Z,54.17
2017-06-29T03:34:32.893Z,54.08
2017-06-29T03:35:43.107Z,54.27
2017-06-29T03:36:52.710Z,54.37
2017-06-29T03:40:34.977Z,54.25
2017-06-29T03:44:17.244Z,54.25
2017-06-29T03:45:27.467Z,54.44
2017-06-29T03:46:37.679Z,54.47
2017-06-29T03:47:47.594Z,54.44
2017-06-29T03:48:57.491Z,54.44
2017-06-29T03:50:07.087Z,54.44
2017-06-29T03:51:16.840Z,54.47
2017-06-29T03:52:26.432Z,54.44
2017-06-29T03:53:36.662Z,54.47
2017-06-29T03:54:46.648Z,54.44
2017-06-29T03:55:55.949Z,54.27
2017-06-29T03:57:06.317Z,54.37
2017-06-29T03:58:15.924Z,54.35
2017-06-29T03:59:26.150Z,54.35
2017-06-29T04:00:36.072Z,54.44
2017-06-29T04:01:45.988Z,54.35
2017-06-29T04:02:55.766Z,54.35
2017-06-29T04:04:05.669Z,54.44
2017-06-29T04:05:15.583Z,54.27
2017-06-29T04:06:25.789Z,54.35
2017-06-29T04:07:35.684Z,54.53
2017-06-29T04:08:46.037Z,54.44
2017-06-29T04:09:56.251Z,54.44
2017-06-29T04:11:06.166Z,54.44
2017-06-29T04:12:16.397Z,54.37
2017-06-29T04:13:25.986Z,54.25
2017-06-29T04:14:35.732Z,54.25
2017-06-29T04:15:45.334Z,54.37
2017-06-29T04:16:55.236Z,54.35
2017-06-29T04:18:04.215Z,54.17
2017-06-29T04:19:14.115Z,54.17
2017-06-29T04:20:23.717Z,53.86
2017-06-29T04:21:33.919Z,53.99
2017-06-29T04:22:44.132Z,54.17
2017-06-29T04:23:53.730Z,53.96
2017-06-29T04:25:03.933Z,54.15
2017-06-29T04:26:13.874Z,54.08
2017-06-29T04:27:23.918Z,54.08
2017-06-29T04:28:34.170Z,53.96
2017-06-29T04:29:44.129Z,53.99
2017-06-29T04:30:54.128Z,54.17
2017-06-29T04:32:04.405Z,54.17
2017-06-29T04:33:14.059Z,54.17
2017-06-29T04:34:23.685Z,53.99
2017-06-29T04:35:33.046Z,54.17
2017-06-29T04:36:42.993Z,54.15
2017-06-29T04:37:53.051Z,54.05
2017-06-29T04:39:02.388Z,54.08
2017-06-29T04:40:12.605Z,53.96
2017-06-29T04:41:22.550Z,54.17
2017-06-29T04:42:32.152Z,54.17
2017-06-29T04:43:41.748Z,54.05
2017-06-29T04:44:51.961Z,54.15
2017-06-29T04:46:01.864Z,54.47
2017-06-29T04:47:11.770Z,54.35
2017-06-29T04:48:21.747Z,54.27
2017-06-29T04:49:31.959Z,54.44
2017-06-29T04:50:42.173Z,54.05
2017-06-29T04:51:52.086Z,53.79
2017-06-29T04:53:01.981Z,53.59
2017-06-29T04:54:12.194Z,53.59
2017-06-29T04:55:21.794Z,53.69
2017-06-29T04:56:31.698Z,53.96
2017-06-29T04:57:41.290Z,53.99
2017-06-29T04:58:51.193Z,53.79
2017-06-29T05:00:00.798Z,53.59
2017-06-29T05:01:10.466Z,53.21
2017-06-29T05:02:20.373Z,53.02
2017-06-29T05:03:29.967Z,53.69
2017-06-29T05:04:39.572Z,53.41
2017-06-29T05:05:49.825Z,53.21
2017-06-29T05:06:59.435Z,53.21
2017-06-29T05:08:09.344Z,53.21
2017-06-29T05:09:19.565Z,53.11
2017-06-29T05:10:29.178Z,53.59
2017-06-29T05:11:39.400Z,52.95
2017-06-29T05:12:49.910Z,52.75
2017-06-29T05:13:59.837Z,52.75
2017-06-29T05:15:09.449Z,52.85
2017-06-29T05:16:19.692Z,52.66
2017-06-29T05:17:29.611Z,52.66
2017-06-29T05:18:39.571Z,52.66
2017-06-29T05:19:49.497Z,52.85
2017-06-29T05:20:59.711Z,52.27
2017-06-29T05:22:09.305Z,52.36
2017-06-29T05:23:19.223Z,52.27
2017-06-29T05:24:29.785Z,52.29
2017-06-29T05:25:39.084Z,52.27
2017-06-29T05:26:49.032Z,52.29
2017-06-29T05:27:58.941Z,52.2
2017-06-29T05:29:08.843Z,52.1
2017-06-29T05:30:18.570Z,52
2017-06-29T05:31:28.184Z,52.1
2017-06-29T05:32:37.786Z,52.29
2017-06-29T05:33:47.708Z,52
2017-06-29T05:34:57.946Z,52
2017-06-29T05:36:07.857Z,51.9
2017-06-29T05:37:17.458Z,52
2017-06-29T05:38:27.662Z,52.2
2017-06-29T05:39:36.957Z,51.72
2017-06-29T05:40:46.863Z,51.62
2017-06-29T05:41:57.090Z,51.62
2017-06-29T05:43:06.991Z,51.52
2017-06-29T05:44:16.907Z,51.42
2017-06-29T05:45:26.517Z,51.72
2017-06-29T05:46:36.697Z,51.64
2017-06-29T05:47:46.700Z,51.64
2017-06-29T05:48:57.191Z,51.16
2017-06-29T05:50:07.710Z,51.42
2017-06-29T05:51:17.633Z,51.54
2017-06-29T05:52:27.229Z,51.06
2017-06-29T05:53:36.663Z,51.16
2017-06-29T05:54:46.618Z,51.54
2017-06-29T05:55:59.564Z,51.06
2017-06-29T05:57:11.414Z,51.54
2017-06-29T05:58:21.328Z,51.16
2017-06-29T05:59:31.733Z,51.45
2017-06-29T06:00:41.670Z,51.54
2017-06-29T06:01:51.593Z,51.06
2017-06-29T06:03:01.811Z,51.54
2017-06-29T06:04:11.732Z,51.06
2017-06-29T06:05:22.323Z,51.06
2017-06-29T06:06:32.224Z,51.64
2017-06-29T06:07:42.147Z,51.06
2017-06-29T06:08:52.377Z,51.25
2017-06-29T06:10:02.281Z,51.45
2017-06-29T06:11:11.577Z,51.25
2017-06-29T06:12:21.477Z,51.45
2017-06-29T06:13:31.400Z,51.45
2017-06-29T06:14:41.006Z,51.45
2017-06-29T06:15:51.253Z,51.54
2017-06-29T06:17:00.967Z,51.35
2017-06-29T06:18:10.562Z,51.35
2017-06-29T06:19:20.811Z,51.54
2017-06-29T06:20:30.716Z,51.54
2017-06-29T06:21:40.314Z,51.64
2017-06-29T06:22:49.903Z,51.35
2017-06-29T06:23:59.804Z,51.35
2017-06-29T06:25:09.703Z,51.35
2017-06-29T06:26:19.923Z,51.37
2017-06-29T06:27:29.828Z,51.35
2017-06-29T06:28:40.066Z,51.37
2017-06-29T06:29:50.268Z,51.37
2017-06-29T06:30:59.575Z,51.45
2017-06-29T06:32:09.485Z,51.47
2017-06-29T06:33:19.713Z,51.37
2017-06-29T06:34:29.773Z,51.37
2017-06-29T06:35:38.766Z,50.99
2017-06-29T06:36:48.676Z,51.37
2017-06-29T06:37:58.582Z,51.28
2017-06-29T06:39:08.487Z,51.28
2017-06-29T06:40:18.541Z,51.37
2017-06-29T06:41:28.448Z,51.28
2017-06-29T06:42:38.350Z,51.47
2017-06-29T06:43:48.562Z,51.28
2017-06-29T06:44:58.776Z,51.37
2017-06-29T06:46:08.746Z,51.37
2017-06-29T06:47:18.662Z,51.28
2017-06-29T06:48:28.574Z,51.37
2017-06-29T06:49:38.185Z,51.37
2017-06-29T06:50:47.803Z,51.47
2017-06-29T06:51:57.512Z,50.99
2017-06-29T06:53:07.412Z,50.99
2017-06-29T06:54:17.330Z,51.28
2017-06-29T06:55:27.559Z,51.28
2017-06-29T06:56:37.784Z,51.28
2017-06-29T06:57:47.379Z,51.28
2017-06-29T06:58:57.304Z,51.28
2017-06-29T07:00:06.899Z,50.89
2017-06-29T07:01:16.499Z,50.99
2017-06-29T07:02:26.095Z,51.09
2017-06-29T07:03:36.161Z,50.89
2017-06-29T07:04:45.151Z,50.7
2017-06-29T07:05:55.375Z,51.18
2017-06-29T07:07:05.289Z,51.28
2017-06-29T07:08:14.580Z,51.09
2017-06-29T07:09:24.541Z,51.09
2017-06-29T07:10:33.837Z,50.99
2017-06-29T07:11:44.049Z,50.89
2017-06-29T07:12:53.958Z,51.28
2017-06-29T07:14:03.560Z,51.28
2017-06-29T07:15:13.464Z,51.28
2017-06-29T07:16:23.379Z,50.7
2017-06-29T07:17:33.282Z,51.09
2017-06-29T07:18:42.891Z,51.09
2017-06-29T07:19:52.563Z,51.28
2017-06-29T07:21:02.278Z,51.28
2017-06-29T07:22:12.195Z,51.09
2017-06-29T07:23:22.099Z,51.09
2017-06-29T07:24:32.362Z,51.09
2017-06-29T07:25:42.587Z,51.28
2017-06-29T07:26:52.239Z,51.28
2017-06-29T07:28:02.192Z,51.37
2017-06-29T07:29:12.405Z,51.28
2017-06-29T07:30:22.019Z,51.37
2017-06-29T07:31:32.231Z,51.28
2017-06-29T07:32:41.989Z,51.28
2017-06-29T07:33:52.213Z,51.28
2017-06-29T07:35:01.832Z,51.18
2017-06-29T07:36:11.746Z,51.09
2017-06-29T07:37:21.655Z,50.99
2017-06-29T07:38:31.683Z,51.09
2017-06-29T07:39:41.280Z,50.89
2017-06-29T07:40:50.888Z,51.28
2017-06-29T07:42:00.805Z,51.28
2017-06-29T07:43:10.403Z,51.28
2017-06-29T07:44:20.309Z,51.28
2017-06-29T07:45:30.229Z,51.37
2017-06-29T07:46:39.841Z,51.37
2017-06-29T07:47:50.049Z,51.57
2017-06-29T07:48:59.973Z,51.37
2017-06-29T07:50:10.540Z,51.28
2017-06-29T07:51:20.438Z,51.28
2017-06-29T07:52:30.341Z,51.37
2017-06-29T07:53:39.664Z,51.47
2017-06-29T07:54:49.568Z,51.37
2017-06-29T07:55:59.878Z,51.47
2017-06-29T07:57:09.475Z,51.37
2017-06-29T07:58:19.688Z,51.37
2017-06-29T07:59:29.622Z,51.47
2017-06-29T08:00:39.533Z,51.47
2017-06-29T08:01:49.302Z,51.37
2017-06-29T08:02:59.536Z,51.37
2017-06-29T08:04:09.752Z,51.37
2017-06-29T08:05:19.344Z,51.37
2017-06-29T08:06:29.251Z,51.28
2017-06-29T08:07:39.592Z,50.89
2017-06-29T08:08:49.495Z,51.18
2017-06-29T08:09:58.486Z,50.99
2017-06-29T08:11:08.388Z,50.89
2017-06-29T08:12:18.003Z,50.99
2017-06-29T08:13:27.603Z,50.89
2017-06-29T08:14:37.515Z,50.89
2017-06-29T08:15:47.720Z,51.18
2017-06-29T08:16:57.626Z,51.31
2017-06-29T08:18:07.225Z,51.21
2017-06-29T08:19:17.454Z,50.92
2017-06-29T08:20:27.375Z,50.53
2017-06-29T08:21:37.603Z,50.62
2017-06-29T08:22:47.833Z,50.53
2017-06-29T08:23:57.742Z,50.62
2017-06-29T08:25:07.856Z,50.53
2017-06-29T08:26:18.066Z,50.53
2017-06-29T08:27:27.360Z,50.53
2017-06-29T08:28:37.591Z,50.43
2017-06-29T08:29:47.830Z,50.53
2017-06-29T08:30:57.802Z,50.53
2017-06-29T08:32:07.708Z,50.43
2017-06-29T08:33:17.309Z,50.14
2017-06-29T08:34:27.207Z,50.53
2017-06-29T08:35:36.805Z,50.24
2017-06-29T08:36:45.950Z,50.24
2017-06-29T08:37:55.551Z,50.34
2017-06-29T08:39:05.465Z,50.34
2017-06-29T08:40:14.775Z,50.36
2017-06-29T08:41:24.381Z,50.14
2017-06-29T08:42:34.634Z,49.97
2017-06-29T08:43:43.936Z,50.07
2017-06-29T08:44:53.542Z,49.97
2017-06-29T08:46:03.467Z,49.97
2017-06-29T08:47:13.084Z,49.97
2017-06-29T08:48:22.840Z,50.16
2017-06-29T08:49:33.054Z,49.97
2017-06-29T08:50:42.965Z,49.68
2017-06-29T08:51:52.573Z,50.07
2017-06-29T08:53:02.794Z,50.46
2017-06-29T08:54:12.441Z,50.46
2017-06-29T08:55:22.345Z,50.36
2017-06-29T08:56:32.264Z,50.43
2017-06-29T08:57:41.554Z,50.36
2017-06-29T08:58:51.471Z,50.34
2017-06-29T09:00:01.529Z,50.26
2017-06-29T09:01:11.736Z,50.16
2017-06-29T09:02:21.337Z,50.14
2017-06-29T09:03:30.324Z,50.04
2017-06-29T09:04:40.219Z,50.24
2017-06-29T09:05:50.128Z,50.62
2017-06-29T09:07:00.328Z,50.53
2017-06-29T09:08:09.612Z,50.72
2017-06-29T09:09:19.834Z,50.43
2017-06-29T09:10:30.046Z,50.24
2017-06-29T09:11:40.105Z,50.62
2017-06-29T09:12:50.012Z,50.62
2017-06-29T09:13:59.629Z,50.34
2017-06-29T09:15:09.561Z,50.82
2017-06-29T09:16:19.480Z,50.82
2017-06-29T09:17:29.259Z,50.34
2017-06-29T09:18:39.495Z,50.43
2017-06-29T09:19:49.098Z,50.43
2017-06-29T09:20:58.995Z,50.53
2017-06-29T09:22:08.915Z,50.43
2017-06-29T09:23:18.964Z,50.53
2017-06-29T09:24:28.887Z,50.53
2017-06-29T09:25:38.492Z,50.34
2017-06-29T09:26:48.113Z,50.92
2017-06-29T09:27:57.707Z,50.43
2017-06-29T09:29:07.624Z,50.53
2017-06-29T09:30:17.596Z,50.34
2017-06-29T09:31:27.208Z,50.82
2017-06-29T09:32:37.810Z,50.53
2017-06-29T09:33:47.434Z,50.62
2017-06-29T09:34:57.392Z,50.62
2017-06-29T09:36:07.611Z,50.24
2017-06-29T09:37:17.244Z,50.14
2017-06-29T09:38:27.167Z,50.24
2017-06-29T09:39:37.072Z,50.24
2017-06-29T09:40:47.033Z,50.24
2017-06-29T09:41:57.244Z,50.24
2017-06-29T09:43:06.861Z,50.24
2017-06-29T09:44:16.456Z,50.62
2017-06-29T09:45:26.384Z,50.34
2017-06-29T09:46:36.454Z,50.24
2017-06-29T09:47:45.753Z,50.24
2017-06-29T09:48:55.970Z,50.53
2017-06-29T09:50:05.881Z,50.14
2017-06-29T09:51:15.479Z,50.24
2017-06-29T09:52:25.545Z,50.62
2017-06-29T09:53:35.146Z,50.62
2017-06-29T09:54:44.753Z,50.62
2017-06-29T09:55:54.950Z,50.34
2017-06-29T09:57:04.852Z,50.62
2017-06-29T09:58:14.459Z,50.34
2017-06-29T09:59:24.066Z,50.43
2017-06-29T10:00:33.676Z,50.43
2017-06-29T10:01:43.597Z,50.04
2017-06-29T10:02:53.558Z,50.34
2017-06-29T10:04:03.914Z,50.24
2017-06-29T10:05:13.524Z,50.24
2017-06-29T10:06:23.430Z,50.34
2017-06-29T10:07:33.339Z,50.24
2017-06-29T10:08:42.946Z,50.14
2017-06-29T10:09:52.546Z,50.36
2017-06-29T10:11:02.162Z,50.43
2017-06-29T10:12:12.082Z,50.43
2017-06-29T10:13:22.002Z,50.34
2017-06-29T10:14:32.256Z,50.43
2017-06-29T10:15:42.634Z,50.62
2017-06-29T10:16:52.549Z,50.16
2017-06-29T10:18:02.801Z,50.07
2017-06-29T10:19:12.101Z,50.26
2017-06-29T10:20:21.712Z,49.97
2017-06-29T10:21:32.103Z,49.68
2017-06-29T10:22:42.322Z,49.87
2017-06-29T10:23:52.537Z,49.77
2017-06-29T10:25:02.749Z,50.07
2017-06-29T10:26:12.657Z,50.26
2017-06-29T10:27:22.737Z,50.07
2017-06-29T10:28:32.353Z,50.16
2017-06-29T10:29:42.576Z,50.26
2017-06-29T10:30:52.487Z,50.16
2017-06-29T10:32:02.129Z,50.26
2017-06-29T10:35:44.256Z,50.07
2017-06-29T10:39:26.849Z,49.87
2017-06-29T10:40:37.069Z,50.07
2017-06-29T10:41:46.373Z,50.16
2017-06-29T10:42:56.593Z,50.16
2017-06-29T10:44:06.529Z,50.16
2017-06-29T10:45:16.429Z,50.26
2017-06-29T10:46:26.180Z,50.26
2017-06-29T10:47:35.794Z,49.77
2017-06-29T10:48:45.718Z,50.16
2017-06-29T10:49:55.624Z,50.26
2017-06-29T10:51:05.520Z,50.16
2017-06-29T10:52:15.721Z,50.26
2017-06-29T10:53:25.636Z,50.16
2017-06-29T10:54:35.546Z,50.07
2017-06-29T10:55:45.160Z,50.16
2017-06-29T10:56:55.054Z,50.07
2017-06-29T10:58:05.100Z,50.07
2017-06-29T10:59:14.695Z,49.87
2017-06-29T11:00:24.908Z,50.07
2017-06-29T11:01:35.126Z,49.77
2017-06-29T11:02:44.748Z,49.68
2017-06-29T11:03:54.709Z,49.68
2017-06-29T11:05:04.929Z,49.58
2017-06-29T11:06:14.843Z,49.68
2017-06-29T11:07:24.749Z,49.77
2017-06-29T11:08:34.652Z,49.68
2017-06-29T11:09:44.715Z,49.68
2017-06-29T11:10:54.631Z,49.68
2017-06-29T11:12:04.842Z,49.77
2017-06-29T11:13:14.139Z,49.68
2017-06-29T11:14:23.430Z,49.58
2017-06-29T11:15:33.340Z,49.68
2017-06-29T11:16:43.579Z,49.77
2017-06-29T11:17:53.504Z,49.77
2017-06-29T11:19:03.109Z,49.87
2017-06-29T11:20:12.403Z,49.58
2017-06-29T11:21:22.355Z,49.77
2017-06-29T11:22:31.655Z,49.77
2017-06-29T11:23:40.964Z,49.77
2017-06-29T11:24:50.572Z,49.77
2017-06-29T11:25:59.885Z,49.87
2017-06-29T11:27:09.487Z,49.87
2017-06-29T11:28:19.398Z,49.87
2017-06-29T11:29:29.641Z,49.87
2017-06-29T11:30:39.841Z,49.97
2017-06-29T11:31:50.059Z,49.87
2017-06-29T11:32:59.966Z,49.77
2017-06-29T11:34:09.265Z,49.87
2017-06-29T11:35:19.490Z,49.97
2017-06-29T11:36:29.090Z,49.97
2017-06-29T11:37:39.011Z,49.49
2017-06-29T11:38:48.632Z,49.97
2017-06-29T11:39:58.891Z,49.97
2017-06-29T11:41:07.885Z,49.87
2017-06-29T11:42:17.796Z,49.87
2017-06-29T11:43:28.004Z,49.97
2017-06-29T11:44:37.744Z,49.77
2017-06-29T11:45:47.668Z,49.77
2017-06-29T11:46:57.578Z,49.68
2017-06-29T11:48:07.495Z,49.68
2017-06-29T11:49:17.099Z,49.77
2017-06-29T11:50:27.018Z,50.16
2017-06-29T11:51:36.624Z,50.26
2017-06-29T11:52:46.224Z,50.26
2017-06-29T11:53:56.152Z,49.97
2017-06-29T11:55:05.806Z,50.16
2017-06-29T11:56:15.865Z,50.07
2017-06-29T11:57:26.093Z,50.16
2017-06-29T11:58:36.332Z,50.07
2017-06-29T11:59:46.545Z,50.26
2017-06-29T12:00:56.790Z,50.16
2017-06-29T12:02:06.715Z,50.26
2017-06-29T12:03:16.941Z,50.26
2017-06-29T12:04:26.880Z,50.26
2017-06-29T12:05:37.088Z,50.26
2017-06-29T12:06:46.701Z,50.07
2017-06-29T12:07:56.699Z,49.97
2017-06-29T12:09:06.645Z,50.07
2017-06-29T12:10:16.866Z,50.07
2017-06-29T12:11:27.073Z,50.07
2017-06-29T12:12:36.990Z,50.07
2017-06-29T12:13:46.747Z,50.16
2017-06-29T12:14:56.697Z,50.36
2017-06-29T12:16:06.640Z,50.16
2017-06-29T12:17:16.562Z,50.16
2017-06-29T12:18:26.175Z,50.26
2017-06-29T12:19:35.833Z,49.68
2017-06-29T12:20:46.418Z,50.26
2017-06-29T12:21:55.400Z,50.26
2017-06-29T12:23:05.320Z,50.16
2017-06-29T12:24:14.934Z,50.07
2017-06-29T12:25:24.753Z,49.77
2017-06-29T12:26:34.367Z,49.68
2017-06-29T12:27:44.581Z,49.49
2017-06-29T12:28:54.483Z,49.77
2017-06-29T12:30:04.400Z,49.77
2017-06-29T12:31:14.460Z,49.68
2017-06-29T12:32:24.375Z,49.77
2017-06-29T12:33:34.299Z,49.97
2017-06-29T12:34:44.519Z,49.97
2017-06-29T12:35:54.124Z,49.97
2017-06-29T12:37:04.195Z,49.39
2017-06-29T12:38:14.132Z,49.49
2017-06-29T12:39:23.751Z,49.77
2017-06-29T12:40:33.672Z,49.58
2017-06-29T12:41:43.595Z,49.39
2017-06-29T12:42:54.152Z,49.29
2017-06-29T12:44:04.069Z,49.29
2017-06-29T12:45:14.274Z,49.49
2017-06-29T12:46:24.179Z,49.39
2017-06-29T12:47:33.790Z,49.29
2017-06-29T12:48:44.054Z,49.29
2017-06-29T12:49:53.658Z,49.29
2017-06-29T12:51:03.572Z,49.39
2017-06-29T12:52:13.487Z,49.29
2017-06-29T12:53:23.093Z,49.39
2017-06-29T12:54:33.046Z,49.29
2017-06-29T12:55:42.971Z,49.39
2017-06-29T12:56:53.191Z,49.29
2017-06-29T12:58:03.098Z,49.39
2017-06-29T12:59:12.704Z,49.29
2017-06-29T13:00:22.465Z,49.29
2017-06-29T13:01:32.376Z,49.39
2017-06-29T13:02:41.997Z,49.39
2017-06-29T13:03:51.897Z,49.39
2017-06-29T13:05:01.502Z,49.39
2017-06-29T13:06:11.769Z,49.29
2017-06-29T13:07:21.695Z,49.29
2017-06-29T13:08:31.605Z,49.39
2017-06-29T13:09:41.224Z,49.39
2017-06-29T13:10:50.527Z,49.29
2017-06-29T13:12:00.432Z,49.1
2017-06-29T13:13:10.647Z,49.29
2017-06-29T13:14:20.876Z,49.19
2017-06-29T13:15:30.487Z,49
2017-06-29T13:16:40.414Z,49.19
2017-06-29T13:17:50.100Z,49.19
2017-06-29T13:19:00.047Z,49.19
2017-06-29T13:20:09.957Z,49.19
2017-06-29T13:21:19.904Z,49.39
2017-06-29T13:22:30.131Z,49.19
2017-06-29T13:23:40.104Z,49.1
2017-06-29T13:24:50.030Z,49
2017-06-29T13:25:59.642Z,49.1
2017-06-29T13:27:09.579Z,49
2017-06-29T13:28:19.191Z,49.19
2017-06-29T13:29:29.464Z,49.29
2017-06-29T13:30:39.074Z,49.1
2017-06-29T13:31:49.030Z,49.1
2017-06-29T13:32:58.334Z,49.19
2017-06-29T13:34:08.248Z,49.1
2017-06-29T13:35:17.894Z,49.1
2017-06-29T13:36:27.806Z,49.1
2017-06-29T13:37:37.415Z,49.29
2017-06-29T13:38:47.338Z,49.1
2017-06-29T13:39:57.545Z,49.1
2017-06-29T13:41:07.456Z,49.29
2017-06-29T13:42:17.363Z,49.19
2017-06-29T13:43:26.668Z,49.1
2017-06-29T13:44:36.905Z,49.29
2017-06-29T13:45:46.526Z,49
2017-06-29T13:46:56.770Z,49.19
2017-06-29T13:48:07.000Z,48.9
2017-06-29T13:49:16.609Z,49
2017-06-29T13:50:26.526Z,49.1
2017-06-29T13:51:36.460Z,49
2017-06-29T13:52:46.470Z,49.1
2017-06-29T13:53:56.687Z,49.29
2017-06-29T13:55:06.614Z,49.1
2017-06-29T13:56:16.842Z,49.1
2017-06-29T13:57:26.443Z,49.1
2017-06-29T13:58:36.512Z,49.19
2017-06-29T13:59:46.418Z,49.19
2017-06-29T14:00:56.025Z,49.19
2017-06-29T14:02:05.631Z,49.19
2017-06-29T14:03:15.856Z,49.1
2017-06-29T14:04:25.215Z,49.19
2017-06-29T14:05:35.126Z,49.1
2017-06-29T14:06:45.338Z,49.29
2017-06-29T14:07:54.639Z,49.19
2017-06-29T14:09:04.256Z,49.29
2017-06-29T14:10:14.208Z,49.29
2017-06-29T14:11:24.427Z,49.29
2017-06-29T14:12:34.328Z,49.49
2017-06-29T14:13:44.914Z,49.39
2017-06-29T14:14:54.807Z,49.19
2017-06-29T14:16:04.866Z,49.29
2017-06-29T14:17:14.472Z,49.19
2017-06-29T14:18:24.090Z,49.19
2017-06-29T14:19:33.708Z,49
2017-06-29T14:20:43.928Z,49.19
2017-06-29T14:21:53.909Z,49.19
2017-06-29T14:23:04.145Z,49.1
2017-06-29T14:24:14.419Z,49.19
2017-06-29T14:25:24.636Z,49.19
2017-06-29T14:26:34.554Z,49
2017-06-29T14:27:44.937Z,49.29
2017-06-29T14:28:54.901Z,49.19
2017-06-29T14:30:05.115Z,49.19
2017-06-29T14:31:15.333Z,49.19
2017-06-29T14:32:25.544Z,49.19
2017-06-29T14:33:35.288Z,49.1
2017-06-29T14:34:44.590Z,49.1
2017-06-29T14:35:54.505Z,49.1
2017-06-29T14:37:04.402Z,49.39
2017-06-29T14:38:14.624Z,49.39
2017-06-29T14:39:24.538Z,49.19
2017-06-29T14:40:34.455Z,49
2017-06-29T14:41:44.050Z,49.29
2017-06-29T14:42:53.644Z,49.19
2017-06-29T14:44:03.550Z,49.1
2017-06-29T14:45:13.457Z,49.39
2017-06-29T14:46:23.361Z,49
2017-06-29T14:47:33.591Z,49.19
2017-06-29T14:48:43.506Z,49.39
2017-06-29T14:49:52.826Z,49.29
2017-06-29T14:51:02.483Z,49.49
2017-06-29T14:52:12.692Z,49.39
2017-06-29T14:53:22.616Z,49.1
2017-06-29T14:54:32.522Z,49.39
2017-06-29T14:55:42.157Z,49.39
2017-06-29T14:56:52.378Z,49.1
2017-06-29T14:58:02.287Z,49.19
2017-06-29T14:59:12.505Z,49.1
2017-06-29T15:00:22.427Z,49.19
2017-06-29T15:01:31.710Z,49
2017-06-29T15:02:41.626Z,49.19
2017-06-29T15:03:51.220Z,49.19
2017-06-29T15:05:01.467Z,49.39
2017-06-29T15:06:11.687Z,49.39
2017-06-29T15:07:20.682Z,49.27
2017-06-29T15:08:31.286Z,49.29
2017-06-29T15:09:41.272Z,49.39
2017-06-29T15:10:51.205Z,49.77
2017-06-29T15:12:01.429Z,49.46
2017-06-29T15:13:11.375Z,49.46
2017-06-29T15:14:21.785Z,49.85